createdAt,value
2022-11-27T00:02:29.796Z,19.10
2022-11-27T00:07:33.052Z,17.30
2022-11-27T00:10:05.860Z,17.70
2022-11-27T00:12:38.504Z,16.80
2022-11-27T00:17:48.408Z,16.50
2022-11-27T00:20:20.804Z,16.90
2022-11-27T00:22:53.127Z,16.00
2022-11-27T00:25:25.453Z,14.50
2022-11-27T00:27:57.865Z,15.60
2022-11-27T00:30:30.282Z,15.50
2022-11-27T00:33:02.556Z,14.70
2022-11-27T00:35:37.341Z,14.50
2022-11-27T00:38:11.121Z,13.00
2022-11-27T00:40:43.572Z,12.50
2022-11-27T00:43:15.836Z,13.70
2022-11-27T00:45:51.769Z,13.60
2022-11-27T00:48:24.046Z,14.10
2022-11-27T00:51:02.071Z,13.20
2022-11-27T00:53:34.612Z,12.50
2022-11-27T00:56:07.553Z,12.50
2022-11-27T00:58:39.910Z,13.10
2022-11-27T01:01:18.101Z,12.40
2022-11-27T01:03:50.646Z,12.10
2022-11-27T01:06:23.732Z,12.50
2022-11-27T01:08:56.190Z,13.30
2022-11-27T01:11:30.946Z,13.90
2022-11-27T01:14:05.212Z,14.40
2022-11-27T01:16:42.719Z,13.20
2022-11-27T01:19:17.989Z,14.70
2022-11-27T01:21:50.385Z,13.70
2022-11-27T01:24:22.736Z,13.70
2022-11-27T01:26:55.102Z,13.60
2022-11-27T01:29:27.485Z,14.20
2022-11-27T01:31:59.669Z,13.80
2022-11-27T01:34:31.978Z,14.10
2022-11-27T01:37:04.234Z,13.80
2022-11-27T01:39:36.495Z,12.90
2022-11-27T01:42:10.244Z,13.10
2022-11-27T01:44:54.922Z,13.80
2022-11-27T01:47:41.525Z,13.30
2022-11-27T01:50:18.750Z,14.20
2022-11-27T01:52:54.510Z,14.20
2022-11-27T01:55:31.834Z,14.10
2022-11-27T01:58:08.691Z,14.00
2022-11-27T02:00:41.119Z,14.00
2022-11-27T02:03:14.189Z,14.80
2022-11-27T02:05:46.535Z,14.40
2022-11-27T02:08:19.657Z,14.50
2022-11-27T02:10:55.400Z,12.90
2022-11-27T02:13:33.429Z,13.80
2022-11-27T02:16:17.925Z,13.10
2022-11-27T02:18:57.802Z,13.60
2022-11-27T02:21:35.654Z,13.60
2022-11-27T02:24:38.782Z,13.90
2022-11-27T02:27:40.821Z,13.00
2022-11-27T02:30:13.810Z,12.80
2022-11-27T02:32:49.809Z,12.80
2022-11-27T02:35:24.871Z,11.60
2022-11-27T02:38:00.475Z,12.20
2022-11-27T02:40:35.912Z,11.70
2022-11-27T02:43:11.265Z,11.40
2022-11-27T02:45:45.813Z,10.90
2022-11-27T02:48:21.450Z,11.00
2022-11-27T02:50:55.053Z,11.80
2022-11-27T02:53:30.008Z,10.90
2022-11-27T02:56:03.057Z,9.60
2022-11-27T02:58:36.073Z,9.80
2022-11-27T03:01:09.107Z,11.30
2022-11-27T03:03:43.461Z,10.60
2022-11-27T03:06:20.777Z,12.30
2022-11-27T03:08:55.718Z,12.70
2022-11-27T03:11:30.980Z,13.00
2022-11-27T03:14:06.638Z,13.20
2022-11-27T03:16:41.762Z,13.00
2022-11-27T03:19:20.958Z,14.00
2022-11-27T03:21:55.690Z,13.90
2022-11-27T03:24:28.466Z,13.90
2022-11-27T03:27:02.186Z,12.80
2022-11-27T03:29:38.893Z,13.00
2022-11-27T03:32:11.265Z,13.80
2022-11-27T03:34:44.160Z,14.10
2022-11-27T03:37:16.582Z,13.60
2022-11-27T03:39:48.963Z,14.30
2022-11-27T03:42:26.641Z,15.10
2022-11-27T03:45:05.293Z,14.00
2022-11-27T03:47:59.159Z,13.90
2022-11-27T03:50:38.081Z,13.40
2022-11-27T03:53:14.985Z,14.60
2022-11-27T03:55:54.233Z,13.10
2022-11-27T03:58:35.369Z,13.40
2022-11-27T04:01:09.411Z,13.30
2022-11-27T04:03:41.844Z,12.70
2022-11-27T04:06:14.219Z,14.10
2022-11-27T04:08:47.641Z,14.50
2022-11-27T04:11:20.052Z,17.60
2022-11-27T04:13:53.133Z,19.70
2022-11-27T04:16:25.615Z,21.20
2022-11-27T04:21:28.757Z,22.90
2022-11-27T04:24:00.981Z,19.70
2022-11-27T04:26:33.271Z,18.00
2022-11-27T04:29:05.660Z,16.50
2022-11-27T04:31:37.920Z,16.70
2022-11-27T04:34:10.149Z,17.60
2022-11-27T04:36:42.591Z,16.30
2022-11-27T04:39:14.980Z,16.60
2022-11-27T04:41:47.391Z,17.60
2022-11-27T04:44:22.818Z,17.50
2022-11-27T04:46:55.159Z,16.00
2022-11-27T04:49:27.468Z,15.50
2022-11-27T04:51:59.806Z,16.20
2022-11-27T04:54:32.110Z,16.10
2022-11-27T04:57:04.566Z,17.20
2022-11-27T04:59:37.108Z,15.90
2022-11-27T05:04:42.489Z,14.80
2022-11-27T05:07:15.226Z,16.90
2022-11-27T05:09:47.490Z,15.10
2022-11-27T05:12:19.900Z,16.80
2022-11-27T05:14:52.293Z,16.90
2022-11-27T05:17:24.644Z,15.00
2022-11-27T05:19:57.138Z,17.70
2022-11-27T05:22:29.465Z,17.60
2022-11-27T05:25:01.864Z,17.80
2022-11-27T05:27:34.279Z,17.30
2022-11-27T05:30:08.109Z,17.70
2022-11-27T05:32:40.831Z,17.50
2022-11-27T05:35:13.405Z,18.10
2022-11-27T05:40:17.349Z,17.50
2022-11-27T05:42:49.687Z,18.40
2022-11-27T05:45:22.001Z,17.80
2022-11-27T05:47:54.406Z,18.20
2022-11-27T05:50:26.844Z,18.30
2022-11-27T05:52:59.283Z,16.90
2022-11-27T05:55:31.647Z,17.30
2022-11-27T05:58:04.108Z,17.80
2022-11-27T06:00:36.486Z,18.70
2022-11-27T06:03:08.860Z,17.40
2022-11-27T06:05:43.364Z,17.50
2022-11-27T06:08:15.748Z,16.60
2022-11-27T06:10:48.002Z,17.70
2022-11-27T06:13:20.233Z,18.60
2022-11-27T06:15:52.544Z,17.40
2022-11-27T06:18:24.829Z,16.70
2022-11-27T06:20:57.157Z,14.90
2022-11-27T06:23:29.480Z,16.30
2022-11-27T06:26:01.761Z,16.90
2022-11-27T06:28:34.037Z,16.40
2022-11-27T06:31:17.269Z,17.20
2022-11-27T06:33:50.904Z,15.90
2022-11-27T06:36:24.685Z,14.50
2022-11-27T06:38:57.037Z,15.50
2022-11-27T06:41:29.964Z,16.50
2022-11-27T06:44:03.213Z,15.30
2022-11-27T06:46:35.566Z,15.20
2022-11-27T06:49:07.929Z,17.50
2022-11-27T06:51:40.155Z,17.90
2022-11-27T06:54:12.461Z,18.10
2022-11-27T06:56:44.935Z,19.50
2022-11-27T06:59:17.594Z,19.20
2022-11-27T07:04:23.393Z,19.70
2022-11-27T07:06:56.980Z,21.10
2022-11-27T07:09:29.500Z,20.90
2022-11-27T07:12:01.888Z,21.70
2022-11-27T07:14:34.528Z,21.40
2022-11-27T07:19:37.938Z,22.10
2022-11-27T07:24:41.579Z,21.40
2022-11-27T07:27:14.793Z,21.00
2022-11-27T07:29:47.065Z,21.40
2022-11-27T07:32:19.314Z,21.00
2022-11-27T07:34:51.720Z,21.20
2022-11-27T07:37:24.032Z,20.30
2022-11-27T07:40:02.553Z,21.40
2022-11-27T07:42:38.394Z,20.50
2022-11-27T07:45:12.469Z,20.20
2022-11-27T07:47:44.772Z,20.40
2022-11-27T07:50:17.051Z,22.00
2022-11-27T07:52:49.304Z,19.70
2022-11-27T07:55:21.483Z,19.90
2022-11-27T07:57:54.004Z,19.70
2022-11-27T08:00:26.470Z,19.90
2022-11-27T08:02:58.808Z,20.20
2022-11-27T08:05:31.119Z,19.30
2022-11-27T08:08:05.040Z,19.60
2022-11-27T08:10:39.887Z,19.30
2022-11-27T08:13:12.532Z,20.70
2022-11-27T08:18:15.595Z,21.00
2022-11-27T08:20:47.823Z,19.40
2022-11-27T08:23:20.240Z,18.70
2022-11-27T08:25:52.536Z,20.40
2022-11-27T08:28:24.720Z,20.10
2022-11-27T08:31:01.343Z,21.70
2022-11-27T08:33:33.999Z,20.60
2022-11-27T08:38:37.290Z,16.20
2022-11-27T08:41:11.320Z,17.10
2022-11-27T08:43:43.651Z,17.80
2022-11-27T08:46:16.164Z,15.50
2022-11-27T08:48:48.543Z,15.70
2022-11-27T08:51:21.081Z,14.90
2022-11-27T08:56:25.409Z,15.80
2022-11-27T08:58:58.159Z,16.00
2022-11-27T09:01:32.580Z,14.80
2022-11-27T09:04:05.300Z,15.10
2022-11-27T09:06:37.899Z,14.60
2022-11-27T09:11:41.787Z,14.50
2022-11-27T09:14:14.562Z,14.80
2022-11-27T09:16:47.698Z,16.00
2022-11-27T09:21:52.175Z,14.60
2022-11-27T09:24:24.972Z,16.30
2022-11-27T09:26:57.270Z,15.60
2022-11-27T09:29:29.571Z,15.70
2022-11-27T09:32:02.363Z,15.20
2022-11-27T09:34:37.470Z,13.60
2022-11-27T09:37:11.228Z,13.10
2022-11-27T09:39:43.531Z,11.90
2022-11-27T09:42:30.131Z,12.70
2022-11-27T09:45:02.843Z,10.90
2022-11-27T09:47:41.921Z,11.90
2022-11-27T09:50:18.191Z,11.10
2022-11-27T09:52:53.720Z,10.80
2022-11-27T09:55:30.029Z,11.50
2022-11-27T09:58:13.082Z,10.70
2022-11-27T10:00:46.581Z,11.90
2022-11-27T10:03:24.783Z,12.30
2022-11-27T10:06:04.454Z,11.30
2022-11-27T10:08:43.233Z,9.60
2022-11-27T10:11:24.808Z,10.60
2022-11-27T10:14:19.441Z,10.60
2022-11-27T10:16:55.809Z,9.30
2022-11-27T10:19:36.461Z,9.70
2022-11-27T10:25:13.023Z,9.40
2022-11-27T10:27:48.996Z,9.30
2022-11-27T10:30:23.422Z,10.20
2022-11-27T10:32:58.767Z,10.80
2022-11-27T10:35:32.409Z,11.20
2022-11-27T10:38:08.393Z,12.00
2022-11-27T10:40:43.272Z,10.40
2022-11-27T10:43:20.686Z,11.60
2022-11-27T10:45:55.457Z,11.20
2022-11-27T10:48:29.744Z,11.30
2022-11-27T10:51:01.980Z,11.70
2022-11-27T10:53:36.012Z,12.00
2022-11-27T10:56:26.651Z,11.50
2022-11-27T10:59:01.226Z,10.50
2022-11-27T11:01:45.699Z,11.10
2022-11-27T11:04:37.467Z,11.30
2022-11-27T11:07:27.482Z,11.00
2022-11-27T11:09:59.985Z,10.90
2022-11-27T11:15:04.971Z,9.30
2022-11-27T11:17:38.539Z,10.80
2022-11-27T11:20:21.577Z,11.50
2022-11-27T11:22:54.445Z,11.50
2022-11-27T11:25:26.738Z,12.10
2022-11-27T11:27:59.033Z,11.40
2022-11-27T11:30:33.590Z,11.50
2022-11-27T11:33:06.840Z,12.70
2022-11-27T11:35:39.544Z,12.00
2022-11-27T11:38:19.048Z,11.30
2022-11-27T11:41:03.152Z,10.60
2022-11-27T11:43:37.210Z,11.20
2022-11-27T11:46:19.443Z,10.80
2022-11-27T11:49:03.088Z,11.20
2022-11-27T11:52:21.190Z,11.40
2022-11-27T11:55:01.345Z,10.90
2022-11-27T11:58:12.676Z,9.90
2022-11-27T12:01:11.793Z,9.40
2022-11-27T12:03:55.918Z,9.80
2022-11-27T12:06:42.416Z,8.70
2022-11-27T12:09:35.985Z,9.30
2022-11-27T12:14:44.900Z,7.80
2022-11-27T12:17:27.796Z,8.70
2022-11-27T12:20:18.485Z,7.90
2022-11-27T12:23:21.087Z,8.10
2022-11-27T12:25:58.960Z,8.50
2022-11-27T12:28:46.466Z,8.80
2022-11-27T12:31:32.995Z,9.70
2022-11-27T12:34:08.923Z,8.30
2022-11-27T12:37:00.659Z,9.50
2022-11-27T12:39:37.880Z,8.60
2022-11-27T12:42:21.956Z,9.90
2022-11-27T12:44:58.519Z,8.80
2022-11-27T12:47:40.031Z,8.80
2022-11-27T12:50:19.458Z,10.70
2022-11-27T12:52:59.677Z,13.20
2022-11-27T12:55:34.171Z,16.10
2022-11-27T12:58:10.694Z,17.20
2022-11-27T13:00:44.161Z,17.00
2022-11-27T13:03:20.126Z,17.90
2022-11-27T13:05:56.942Z,18.40
2022-11-27T13:08:32.323Z,17.70
2022-11-27T13:11:08.458Z,18.50
2022-11-27T13:13:42.669Z,17.90
2022-11-27T13:16:20.464Z,18.50
2022-11-27T13:18:56.378Z,18.30
2022-11-27T13:21:34.294Z,17.50
2022-11-27T13:24:07.667Z,18.60
2022-11-27T13:26:48.408Z,17.80
2022-11-27T13:29:26.162Z,18.50
2022-11-27T13:32:00.339Z,18.30
2022-11-27T13:34:34.095Z,17.80
2022-11-27T13:37:08.640Z,18.90
2022-11-27T13:39:42.807Z,18.20
2022-11-27T13:42:22.425Z,18.30
2022-11-27T13:44:59.480Z,18.70
2022-11-27T13:47:38.306Z,18.40
2022-11-27T13:50:13.451Z,18.60
2022-11-27T13:52:57.425Z,17.30
2022-11-27T13:55:32.128Z,19.80
2022-11-27T13:58:05.790Z,20.00
2022-11-27T14:00:40.912Z,18.90
2022-11-27T14:03:26.792Z,19.70
2022-11-27T14:05:59.613Z,19.40
2022-11-27T14:08:35.248Z,20.70
2022-11-27T14:11:11.877Z,19.00
2022-11-27T14:13:45.563Z,21.10
2022-11-27T14:16:26.388Z,20.20
2022-11-27T14:19:02.110Z,21.00
2022-11-27T14:21:42.816Z,19.60
2022-11-27T14:24:35.599Z,20.10
2022-11-27T14:27:19.434Z,21.60
2022-11-27T14:29:52.330Z,21.60
2022-11-27T14:32:24.569Z,21.40
2022-11-27T14:34:56.829Z,20.30
2022-11-27T14:37:29.855Z,20.30
2022-11-27T14:40:02.227Z,20.30
2022-11-27T14:42:39.103Z,19.70
2022-11-27T14:45:16.728Z,18.80
2022-11-27T14:47:52.201Z,20.80
2022-11-27T14:50:24.786Z,19.90
2022-11-27T14:55:34.470Z,19.20
2022-11-27T14:58:07.123Z,19.30
2022-11-27T15:00:39.428Z,20.10
2022-11-27T15:03:17.623Z,19.00
2022-11-27T15:05:56.514Z,20.20
2022-11-27T15:08:29.099Z,19.40
2022-11-27T15:13:33.993Z,18.80
2022-11-27T15:16:09.227Z,18.80
2022-11-27T15:18:41.751Z,19.60
2022-11-27T15:23:49.733Z,19.50
2022-11-27T15:26:34.813Z,21.00
2022-11-27T15:29:07.551Z,20.40
2022-11-27T15:31:53.469Z,20.20
2022-11-27T15:34:26.626Z,20.50
2022-11-27T15:37:02.478Z,21.10
2022-11-27T15:39:40.214Z,20.10
2022-11-27T15:42:14.695Z,20.20
2022-11-27T15:44:47.008Z,20.10
2022-11-27T15:47:28.213Z,19.90
2022-11-27T15:50:01.701Z,20.90
2022-11-27T15:52:34.321Z,19.90
2022-11-27T15:57:37.891Z,20.90
2022-11-27T16:00:13.214Z,20.70
2022-11-27T16:02:46.180Z,21.60
2022-11-27T16:05:18.743Z,21.10
2022-11-27T16:07:54.840Z,18.80
2022-11-27T16:10:27.748Z,20.00
2022-11-27T16:12:59.919Z,20.10
2022-11-27T16:15:33.241Z,20.80
2022-11-27T16:18:07.273Z,20.80
2022-11-27T16:20:40.705Z,21.20
2022-11-27T16:23:12.993Z,21.60
2022-11-27T16:25:45.134Z,21.60
2022-11-27T16:28:19.329Z,20.90
2022-11-27T16:30:51.720Z,20.80
2022-11-27T16:33:26.158Z,19.60
2022-11-27T16:36:04.918Z,19.80
2022-11-27T16:38:37.444Z,20.70
2022-11-27T16:41:11.633Z,21.90
2022-11-27T16:43:48.970Z,19.70
2022-11-27T16:46:23.317Z,21.00
2022-11-27T16:48:57.097Z,21.60
2022-11-27T16:51:32.086Z,21.40
2022-11-27T16:54:06.482Z,21.30
2022-11-27T16:56:38.915Z,21.20
2022-11-27T16:59:13.281Z,21.20
2022-11-27T17:01:45.804Z,21.10
2022-11-27T17:04:20.474Z,21.60
2022-11-27T17:06:53.983Z,20.50
2022-11-27T17:09:29.432Z,19.30
2022-11-27T17:12:01.609Z,20.50
2022-11-27T17:14:33.753Z,21.30
2022-11-27T17:17:06.884Z,19.80
2022-11-27T17:19:39.335Z,22.70
2022-11-27T17:22:12.806Z,21.10
2022-11-27T17:27:15.767Z,23.40
2022-11-27T17:29:47.960Z,23.30
2022-11-27T17:32:21.748Z,22.80
2022-11-27T17:34:54.471Z,23.00
2022-11-27T17:39:59.212Z,22.30
2022-11-27T17:42:32.756Z,22.80
2022-11-27T17:47:37.349Z,23.80
2022-11-27T17:50:11.463Z,24.40
2022-11-27T17:52:43.644Z,22.60
2022-11-27T17:55:15.863Z,25.30
2022-11-27T17:57:48.727Z,26.10
2022-11-27T18:00:21.393Z,25.90
2022-11-27T18:05:24.147Z,24.30
2022-11-27T18:07:57.527Z,26.30
2022-11-27T18:10:30.603Z,27.40
2022-11-27T18:13:03.093Z,27.40
2022-11-27T18:15:36.586Z,26.90
2022-11-27T18:18:10.752Z,26.40
2022-11-27T18:20:43.222Z,26.50
2022-11-27T18:23:16.395Z,27.50
2022-11-27T18:25:49.180Z,27.40
2022-11-27T18:28:21.827Z,27.70
2022-11-27T18:30:54.218Z,24.90
2022-11-27T18:33:26.591Z,25.90
2022-11-27T18:35:59.110Z,25.20
2022-11-27T18:38:33.034Z,25.50
2022-11-27T18:41:11.345Z,27.20
2022-11-27T18:43:44.117Z,26.60
2022-11-27T18:46:18.935Z,25.20
2022-11-27T18:48:52.726Z,25.50
2022-11-27T18:51:26.737Z,26.70
2022-11-27T18:53:59.741Z,27.90
2022-11-27T18:56:33.373Z,25.60
2022-11-27T18:59:07.249Z,27.00
2022-11-27T19:01:42.586Z,25.90
2022-11-27T19:04:15.561Z,24.90
2022-11-27T19:06:50.159Z,24.50
2022-11-27T19:09:22.590Z,24.10
2022-11-27T19:11:55.083Z,24.80
2022-11-27T19:14:27.539Z,25.20
2022-11-27T19:17:02.540Z,24.40
2022-11-27T19:22:30.053Z,24.30
2022-11-27T19:25:02.538Z,24.80
2022-11-27T19:27:35.066Z,24.60
2022-11-27T19:30:09.778Z,24.70
2022-11-27T19:32:42.247Z,24.80
2022-11-27T19:35:14.729Z,25.50
2022-11-27T19:37:47.179Z,25.30
2022-11-27T19:40:20.390Z,25.90
2022-11-27T19:42:56.690Z,26.00
2022-11-27T19:45:32.936Z,26.70
2022-11-27T19:48:05.760Z,25.90
2022-11-27T19:50:38.323Z,26.40
2022-11-27T19:53:10.996Z,25.60
2022-11-27T19:55:43.433Z,26.30
2022-11-27T19:58:16.852Z,25.50
2022-11-27T20:00:49.429Z,25.80
2022-11-27T20:03:21.988Z,26.10
2022-11-27T20:06:04.536Z,26.20
2022-11-27T20:08:37.505Z,26.50
2022-11-27T20:11:10.629Z,24.80
2022-11-27T20:13:44.512Z,25.20
2022-11-27T20:16:22.835Z,25.30
2022-11-27T20:18:55.329Z,26.40
2022-11-27T20:21:28.527Z,26.10
2022-11-27T20:24:01.066Z,25.30
2022-11-27T20:26:36.177Z,25.50
2022-11-27T20:29:11.190Z,25.80
2022-11-27T20:31:45.166Z,25.50
2022-11-27T20:34:21.836Z,25.90
2022-11-27T20:36:54.352Z,25.90
2022-11-27T20:39:28.572Z,25.20
2022-11-27T20:42:01.018Z,26.20
2022-11-27T20:44:33.534Z,27.50
2022-11-27T20:47:06.082Z,25.20
2022-11-27T20:49:38.708Z,25.20
2022-11-27T20:54:44.042Z,24.40
2022-11-27T20:57:16.570Z,22.40
2022-11-27T20:59:48.997Z,23.80
2022-11-27T21:02:21.579Z,22.40
2022-11-27T21:04:54.117Z,22.50
2022-11-27T21:07:26.626Z,21.40
2022-11-27T21:09:59.197Z,22.30
2022-11-27T21:12:31.641Z,23.10
2022-11-27T21:15:04.155Z,22.50
2022-11-27T21:17:36.593Z,24.10
2022-11-27T21:20:13.311Z,25.90
2022-11-27T21:22:45.884Z,24.70
2022-11-27T21:25:21.520Z,24.90
2022-11-27T21:27:58.616Z,24.50
2022-11-27T21:30:31.124Z,23.20
2022-11-27T21:33:03.565Z,22.80
2022-11-27T21:35:40.179Z,24.00
2022-11-27T21:38:13.069Z,25.90
2022-11-27T21:40:45.649Z,23.80
2022-11-27T21:43:18.062Z,24.00
2022-11-27T21:45:50.669Z,22.50
2022-11-27T21:48:23.369Z,23.50
2022-11-27T21:51:03.288Z,23.40
2022-11-27T21:53:36.379Z,20.80
2022-11-27T21:56:10.471Z,23.80
2022-11-27T21:58:43.548Z,22.10
2022-11-27T22:01:18.387Z,22.00
2022-11-27T22:03:54.297Z,23.00
2022-11-27T22:06:28.991Z,21.60
2022-11-27T22:09:01.996Z,21.60
2022-11-27T22:11:34.435Z,22.30
2022-11-27T22:14:08.229Z,22.10
2022-11-27T22:16:45.390Z,22.70
2022-11-27T22:19:19.053Z,25.40
2022-11-27T22:24:22.549Z,23.40
2022-11-27T22:26:55.041Z,23.00
2022-11-27T22:29:27.512Z,24.10
2022-11-27T22:32:00.118Z,23.50
2022-11-27T22:34:32.643Z,24.00
2022-11-27T22:37:06.216Z,23.70
2022-11-27T22:39:38.751Z,24.40
2022-11-27T22:42:12.332Z,22.00
2022-11-27T22:44:44.952Z,22.10
2022-11-27T22:47:17.425Z,20.90
2022-11-27T22:49:49.851Z,19.30
2022-11-27T22:52:22.345Z,18.40
2022-11-27T22:54:54.788Z,19.60
2022-11-27T22:57:27.239Z,20.30
2022-11-27T22:59:59.637Z,19.50
2022-11-27T23:02:32.200Z,17.40
2022-11-27T23:05:05.012Z,18.30
2022-11-27T23:07:37.610Z,18.60
2022-11-27T23:10:13.195Z,18.80
2022-11-27T23:12:45.625Z,18.50
2022-11-27T23:15:18.201Z,18.90
2022-11-27T23:17:52.727Z,18.40
2022-11-27T23:20:25.351Z,17.60
2022-11-27T23:22:57.943Z,18.40
2022-11-27T23:25:32.116Z,18.20
2022-11-27T23:28:04.889Z,18.30
2022-11-27T23:30:38.340Z,19.60
2022-11-27T23:33:10.921Z,18.10
2022-11-27T23:35:43.258Z,18.40
2022-11-27T23:38:15.838Z,18.60
2022-11-27T23:40:48.364Z,18.90
2022-11-27T23:43:20.778Z,17.80
2022-11-27T23:45:53.371Z,18.90
2022-11-27T23:48:25.955Z,18.20
2022-11-27T23:50:58.469Z,17.90
2022-11-27T23:53:32.054Z,19.00
2022-11-27T23:56:05.326Z,19.60
2022-11-27T23:58:42.306Z,19.70
